Terminal Aerodrome Forecast
Issued by NWS Cleveland, OH

Home | Current Version | Previous Version | Text Only | Print | Product List | Glossary Off
Versions: 1 2 3 4 5 6 7 8 9 10 11 12 13 14 15 16 17 18 19 20 21 22 23 24 25 26

000
FTUS41 KCLE 092000 AAA
TAFCLE
TAF AMD
KCLE 092042Z 0921/1024 34012KT P6SM VCSH BKN040
      TEMPO 0921/0923 5SM -SHRA BKN025
     FM100000 36006KT P6SM SCT040
     FM100600 19003KT P6SM SKC
     FM101700 01008KT P6SM FEW040=

USA.gov is the U.S. government's official web portal to all federal, state and local government web resources and services.